createdAt,value
2022-08-31T00:01:57.127Z,92885.88
2022-08-31T00:05:00.237Z,92883.44
2022-08-31T00:08:03.692Z,92887.69
2022-08-31T00:11:10.570Z,92892.19
2022-08-31T00:14:13.632Z,92896.63
2022-08-31T00:17:17.281Z,92890.63
2022-08-31T00:20:32.826Z,92888.63
2022-08-31T00:23:37.571Z,92885.91
2022-08-31T00:26:41.041Z,92898.53
2022-08-31T00:29:44.195Z,92891.22
2022-08-31T00:32:47.269Z,92890.94
2022-08-31T00:35:51.062Z,92884.88
2022-08-31T00:38:55.242Z,92884.72
2022-08-31T00:41:58.377Z,92873.94
2022-08-31T00:45:01.458Z,92880.38
2022-08-31T00:48:04.660Z,92867.31
2022-08-31T00:51:07.705Z,92866.72
2022-08-31T00:54:13.523Z,92868.28
2022-08-31T00:57:18.269Z,92871.19
2022-08-31T01:00:29.026Z,92871.66
2022-08-31T01:03:32.213Z,92852.91
2022-08-31T01:06:36.145Z,92846.59
2022-08-31T01:09:52.710Z,92849.47
2022-08-31T01:12:59.753Z,92850.91
2022-08-31T01:16:07.407Z,92839.34
2022-08-31T01:19:28.999Z,92838.03
2022-08-31T01:22:42.685Z,92837.25
2022-08-31T01:25:48.047Z,92834.28
2022-08-31T01:28:53.851Z,92837.00
2022-08-31T01:31:56.933Z,92843.13
2022-08-31T01:35:00.137Z,92847.06
2022-08-31T01:38:04.535Z,92841.63
2022-08-31T01:41:09.078Z,92849.81
2022-08-31T01:44:18.831Z,92848.22
2022-08-31T01:47:21.874Z,92845.84
2022-08-31T01:50:27.967Z,92838.47
2022-08-31T01:53:31.766Z,92838.41
2022-08-31T01:56:41.642Z,92837.41
2022-08-31T01:59:48.674Z,92829.97
2022-08-31T02:03:20.759Z,92835.16
2022-08-31T02:06:23.723Z,92827.03
2022-08-31T02:09:27.142Z,92819.00
2022-08-31T02:12:30.227Z,92829.66
2022-08-31T02:15:34.384Z,92812.94
2022-08-31T02:18:37.580Z,92813.41
2022-08-31T02:21:41.678Z,92797.84
2022-08-31T02:24:44.794Z,92809.94
2022-08-31T02:27:48.128Z,92821.56
2022-08-31T02:30:51.230Z,92800.44
2022-08-31T02:33:54.294Z,92806.38
2022-08-31T02:36:59.389Z,92796.94
2022-08-31T02:40:07.662Z,92798.03
2022-08-31T02:43:21.171Z,92789.44
2022-08-31T02:46:29.800Z,92785.16
2022-08-31T02:49:53.083Z,92794.78
2022-08-31T02:52:57.400Z,92789.13
2022-08-31T02:56:00.530Z,92796.16
2022-08-31T02:59:03.629Z,92788.66
2022-08-31T03:02:06.816Z,92794.28
2022-08-31T03:05:14.030Z,92791.84
2022-08-31T03:08:17.195Z,92779.16
2022-08-31T03:11:21.341Z,92777.72
2022-08-31T03:14:24.751Z,92783.69
2022-08-31T03:17:28.102Z,92777.09
2022-08-31T03:20:31.248Z,92788.19
2022-08-31T03:23:37.937Z,92770.13
2022-08-31T03:26:41.786Z,92753.25
2022-08-31T03:29:44.951Z,92754.63
2022-08-31T03:32:52.090Z,92752.78
2022-08-31T03:35:58.301Z,92752.94
2022-08-31T03:39:01.590Z,92743.50
2022-08-31T03:42:07.439Z,92737.13
2022-08-31T03:45:11.127Z,92758.66
2022-08-31T03:48:15.298Z,92754.13
2022-08-31T03:51:20.818Z,92744.66
2022-08-31T03:54:24.500Z,92747.88
2022-08-31T03:57:27.678Z,92743.50
2022-08-31T04:00:31.960Z,92737.59
2022-08-31T04:03:39.883Z,92739.22
2022-08-31T04:07:01.546Z,92752.72
2022-08-31T04:10:23.656Z,92742.72
2022-08-31T04:13:45.311Z,92732.44
2022-08-31T04:16:54.139Z,92735.44
2022-08-31T04:20:16.795Z,92738.63
2022-08-31T04:23:22.554Z,92732.91
2022-08-31T04:26:30.866Z,92728.66
2022-08-31T04:29:36.833Z,92720.41
2022-08-31T04:32:39.876Z,92701.13
2022-08-31T04:35:44.259Z,92721.09
2022-08-31T04:38:50.290Z,92723.09
2022-08-31T04:41:53.526Z,92712.69
2022-08-31T04:44:57.321Z,92717.97
2022-08-31T04:48:00.513Z,92713.88
2022-08-31T04:51:05.567Z,92722.47
2022-08-31T04:54:11.698Z,92710.94
2022-08-31T04:57:14.728Z,92714.59
2022-08-31T05:00:18.063Z,92707.06
2022-08-31T05:03:42.500Z,92715.25
2022-08-31T05:06:47.817Z,92713.09
2022-08-31T05:09:51.136Z,92716.78
2022-08-31T05:12:54.166Z,92709.59
2022-08-31T05:15:58.670Z,92708.50
2022-08-31T05:19:02.649Z,92696.31
2022-08-31T05:22:07.883Z,92707.56
2022-08-31T05:25:15.374Z,92688.38
2022-08-31T05:28:23.954Z,92681.91
2022-08-31T05:31:29.695Z,92682.25
2022-08-31T05:34:34.523Z,92692.59
2022-08-31T05:37:37.710Z,92681.13
2022-08-31T05:40:40.918Z,92682.13
2022-08-31T05:43:44.061Z,92682.38
2022-08-31T05:46:52.480Z,92684.91
2022-08-31T05:50:08.305Z,92684.50
2022-08-31T05:53:14.507Z,92685.19
2022-08-31T05:56:21.793Z,92686.31
2022-08-31T05:59:26.590Z,92682.13
2022-08-31T06:02:30.195Z,92676.06
2022-08-31T06:05:34.832Z,92687.06
2022-08-31T06:08:40.039Z,92681.97
2022-08-31T06:11:43.147Z,92675.34
2022-08-31T06:14:53.374Z,92686.91
2022-08-31T06:21:09.700Z,92690.56
2022-08-31T06:24:13.449Z,92681.69
2022-08-31T06:27:16.770Z,92660.59
2022-08-31T06:30:21.276Z,92658.88
2022-08-31T06:33:24.663Z,92665.31
2022-08-31T06:36:38.896Z,92666.28
2022-08-31T06:39:56.562Z,92664.81
2022-08-31T06:43:17.890Z,92666.75
2022-08-31T06:46:32.714Z,92658.59
2022-08-31T06:49:45.705Z,92662.91
2022-08-31T06:52:49.945Z,92659.88
2022-08-31T06:55:57.263Z,92650.56
2022-08-31T06:59:38.663Z,92664.19
2022-08-31T07:03:23.594Z,92660.63
2022-08-31T07:06:31.236Z,92669.84
2022-08-31T07:09:36.266Z,92653.56
2022-08-31T07:12:39.934Z,92667.66
2022-08-31T07:15:43.331Z,92654.19
2022-08-31T07:18:47.729Z,92654.81
2022-08-31T07:21:54.034Z,92649.78
2022-08-31T07:24:57.167Z,92649.09
2022-08-31T07:28:01.032Z,92640.91
2022-08-31T07:31:06.353Z,92643.28
2022-08-31T07:34:11.670Z,92644.44
2022-08-31T07:37:44.852Z,92654.91
2022-08-31T07:41:08.125Z,92649.34
2022-08-31T07:44:13.094Z,92639.56
2022-08-31T07:47:20.636Z,92639.88
2022-08-31T07:50:28.086Z,92640.44
2022-08-31T07:53:55.563Z,92636.91
2022-08-31T07:57:10.845Z,92629.63
2022-08-31T08:00:21.647Z,92628.16
2022-08-31T08:03:26.317Z,92619.09
2022-08-31T08:07:06.658Z,92623.09
2022-08-31T08:10:52.322Z,92615.25
2022-08-31T08:14:18.038Z,92600.09
2022-08-31T08:17:49.490Z,92595.44
2022-08-31T08:20:58.118Z,92600.72
2022-08-31T08:27:06.156Z,92611.09
2022-08-31T08:30:13.771Z,92599.28
2022-08-31T08:33:18.958Z,92617.50
2022-08-31T08:36:22.358Z,92614.28
2022-08-31T08:39:25.896Z,92617.63
2022-08-31T08:42:42.349Z,92611.84
2022-08-31T08:45:51.267Z,92614.63
2022-08-31T08:49:01.358Z,92617.75
2022-08-31T08:52:21.222Z,92626.91
2022-08-31T08:55:35.849Z,92637.91
2022-08-31T08:58:44.171Z,92638.56
2022-08-31T09:01:54.793Z,92639.91
2022-08-31T09:05:36.480Z,92619.22
2022-08-31T09:09:18.777Z,92627.22
2022-08-31T09:12:58.663Z,92620.38
2022-08-31T09:16:35.747Z,92624.16
2022-08-31T09:20:00.075Z,92628.06
2022-08-31T09:23:08.475Z,92612.09
2022-08-31T09:26:17.561Z,92604.59
2022-08-31T09:29:57.507Z,92591.56
2022-08-31T09:33:01.561Z,92587.59
2022-08-31T09:36:25.854Z,92595.19
2022-08-31T09:39:37.163Z,92589.47
2022-08-31T09:42:41.176Z,92598.31
2022-08-31T09:46:05.839Z,92594.44
2022-08-31T09:49:25.774Z,92587.84
2022-08-31T09:52:50.332Z,92599.13
2022-08-31T09:56:19.046Z,92591.84
2022-08-31T09:59:48.941Z,92586.53
2022-08-31T10:02:58.501Z,92591.78
2022-08-31T10:06:01.968Z,92596.91
2022-08-31T10:09:11.439Z,92603.25
2022-08-31T10:12:32.902Z,92597.69
2022-08-31T10:15:45.499Z,92601.53
2022-08-31T10:18:59.264Z,92595.53
2022-08-31T10:22:26.013Z,92588.75
2022-08-31T10:25:46.850Z,92588.19
2022-08-31T10:28:53.906Z,92596.31
2022-08-31T10:32:00.675Z,92586.91
2022-08-31T10:35:21.197Z,92579.47
2022-08-31T10:38:44.777Z,92577.28
2022-08-31T10:41:51.815Z,92580.28
2022-08-31T10:45:00.001Z,92581.94
2022-08-31T10:48:03.794Z,92581.50
2022-08-31T10:51:22.936Z,92579.69
2022-08-31T10:54:29.596Z,92582.53
2022-08-31T10:57:42.796Z,92584.13
2022-08-31T11:00:53.917Z,92585.06
2022-08-31T11:04:35.077Z,92579.22
2022-08-31T11:07:52.933Z,92580.75
2022-08-31T11:10:57.326Z,92577.75
2022-08-31T11:14:18.189Z,92572.06
2022-08-31T11:18:01.499Z,92580.16
2022-08-31T11:21:35.798Z,92577.22
2022-08-31T11:24:56.682Z,92581.44
2022-08-31T11:28:35.016Z,92575.69
2022-08-31T11:31:39.687Z,92582.59
2022-08-31T11:34:51.336Z,92576.84
2022-08-31T11:38:01.168Z,92586.97
2022-08-31T11:41:04.626Z,92578.69
2022-08-31T11:44:10.467Z,92580.06
2022-08-31T11:47:29.873Z,92590.78
2022-08-31T11:51:03.858Z,92594.16
2022-08-31T11:54:30.418Z,92590.31
2022-08-31T11:58:10.421Z,92589.19
2022-08-31T12:01:13.397Z,92591.44
2022-08-31T12:04:46.863Z,92592.88
2022-08-31T12:07:50.154Z,92597.09
2022-08-31T12:11:24.660Z,92597.19
2022-08-31T12:14:48.050Z,92599.88
2022-08-31T12:18:06.034Z,92607.78
2022-08-31T12:21:31.927Z,92609.84
2022-08-31T12:24:49.118Z,92611.91
2022-08-31T12:28:03.743Z,92609.44
2022-08-31T12:31:14.259Z,92616.81
2022-08-31T12:34:20.249Z,92611.69
2022-08-31T12:37:27.637Z,92617.16
2022-08-31T12:40:33.715Z,92612.72
2022-08-31T12:43:43.418Z,92614.84
2022-08-31T12:46:46.615Z,92616.31
2022-08-31T12:50:01.471Z,92608.59
2022-08-31T12:53:29.144Z,92602.84
2022-08-31T12:57:08.946Z,92607.69
2022-08-31T13:00:21.066Z,92611.25
2022-08-31T13:03:32.820Z,92608.84
2022-08-31T13:06:41.262Z,92613.59
2022-08-31T13:09:46.590Z,92613.66
2022-08-31T13:12:59.099Z,92612.41
2022-08-31T13:16:08.569Z,92615.84
2022-08-31T13:19:28.535Z,92608.78
2022-08-31T13:22:41.894Z,92610.88
2022-08-31T13:25:49.654Z,92607.66
2022-08-31T13:29:01.196Z,92603.13
2022-08-31T13:32:04.343Z,92600.59
2022-08-31T13:35:13.205Z,92598.75
2022-08-31T13:38:17.073Z,92597.56
2022-08-31T13:41:30.327Z,92599.66
2022-08-31T13:44:38.760Z,92596.56
2022-08-31T13:47:56.637Z,92598.00
2022-08-31T13:51:14.120Z,92600.22
2022-08-31T13:54:35.778Z,92594.47
2022-08-31T13:57:39.415Z,92592.72
2022-08-31T14:00:44.108Z,92596.16
2022-08-31T14:03:59.431Z,92594.38
2022-08-31T14:07:04.059Z,92603.75
2022-08-31T14:10:29.456Z,92605.16
2022-08-31T14:13:36.007Z,92611.63
2022-08-31T14:16:43.560Z,92616.75
2022-08-31T14:19:50.347Z,92618.50
2022-08-31T14:22:54.821Z,92602.00
2022-08-31T14:26:17.300Z,92597.56
2022-08-31T14:29:20.775Z,92608.66
2022-08-31T14:32:24.379Z,92600.22
2022-08-31T14:35:27.781Z,92601.00
2022-08-31T14:38:31.198Z,92608.25
2022-08-31T14:41:35.108Z,92602.34
2022-08-31T14:44:44.277Z,92597.78
2022-08-31T14:47:52.894Z,92594.66
2022-08-31T14:50:56.360Z,92604.00
2022-08-31T14:54:01.124Z,92605.31
2022-08-31T14:57:12.630Z,92605.31
2022-08-31T15:00:22.494Z,92608.59
2022-08-31T15:03:31.615Z,92594.06
2022-08-31T15:06:34.802Z,92591.44
2022-08-31T15:09:41.121Z,92590.81
2022-08-31T15:12:44.770Z,92596.81
2022-08-31T15:15:47.975Z,92594.97
2022-08-31T15:18:54.941Z,92586.47
2022-08-31T15:22:03.722Z,92595.66
2022-08-31T15:25:12.966Z,92588.56
2022-08-31T15:28:19.482Z,92595.22
2022-08-31T15:31:26.795Z,92586.91
2022-08-31T15:34:32.219Z,92589.81
2022-08-31T15:37:35.340Z,92592.00
2022-08-31T15:40:39.332Z,92591.41
2022-08-31T15:43:42.609Z,92586.81
2022-08-31T15:47:05.102Z,92576.97
2022-08-31T15:50:08.823Z,92574.47
2022-08-31T15:53:14.089Z,92574.56
2022-08-31T15:56:17.815Z,92564.88
2022-08-31T15:59:25.324Z,92563.72
2022-08-31T16:02:28.431Z,92567.75
2022-08-31T16:05:39.773Z,92565.84
2022-08-31T16:08:42.990Z,92565.88
2022-08-31T16:11:46.073Z,92571.81
2022-08-31T16:14:51.921Z,92576.97
2022-08-31T16:17:58.108Z,92559.84
2022-08-31T16:21:08.571Z,92559.09
2022-08-31T16:24:14.740Z,92552.25
2022-08-31T16:27:19.261Z,92549.31
2022-08-31T16:30:23.500Z,92553.66
2022-08-31T16:33:26.612Z,92549.59
2022-08-31T16:36:29.800Z,92557.34
2022-08-31T16:39:32.881Z,92549.25
2022-08-31T16:42:35.932Z,92551.69
2022-08-31T16:45:40.788Z,92542.31
2022-08-31T16:49:02.636Z,92547.44
2022-08-31T16:52:11.760Z,92542.75
2022-08-31T16:55:18.538Z,92549.25
2022-08-31T16:58:48.085Z,92541.22
2022-08-31T17:01:48.411Z,92545.72
2022-08-31T17:04:53.705Z,92546.97
2022-08-31T17:07:58.446Z,92537.06
2022-08-31T17:11:03.685Z,92544.22
2022-08-31T17:14:08.653Z,92550.75
2022-08-31T17:17:12.564Z,92538.19
2022-08-31T17:20:16.932Z,92536.13
2022-08-31T17:23:22.195Z,92533.31
2022-08-31T17:26:26.857Z,92540.47
2022-08-31T17:29:34.043Z,92540.38
2022-08-31T17:32:44.697Z,92537.09
2022-08-31T17:35:48.484Z,92539.06
2022-08-31T17:38:52.857Z,92539.00
2022-08-31T17:41:56.540Z,92532.31
2022-08-31T17:44:59.756Z,92526.31
2022-08-31T17:48:03.162Z,92528.81
2022-08-31T17:51:11.211Z,92517.59
2022-08-31T17:54:21.119Z,92521.50
2022-08-31T17:57:28.491Z,92521.50
2022-08-31T18:00:33.364Z,92517.63
2022-08-31T18:03:36.490Z,92513.75
2022-08-31T18:06:43.310Z,92516.44
2022-08-31T18:09:47.471Z,92515.13
2022-08-31T18:12:50.615Z,92510.53
2022-08-31T18:15:53.663Z,92513.25
2022-08-31T18:18:56.791Z,92515.22
2022-08-31T18:22:00.327Z,92509.94
2022-08-31T18:25:04.733Z,92515.78
2022-08-31T18:28:08.074Z,92519.00
2022-08-31T18:31:11.848Z,92510.50
2022-08-31T18:34:22.605Z,92508.44
2022-08-31T18:37:26.223Z,92511.69
2022-08-31T18:40:49.021Z,92520.88
2022-08-31T18:44:11.108Z,92509.00
2022-08-31T18:47:15.739Z,92514.91
2022-08-31T18:50:19.066Z,92518.19
2022-08-31T18:53:27.746Z,92515.59
2022-08-31T18:56:33.250Z,92516.19
2022-08-31T18:59:37.296Z,92517.47
2022-08-31T19:02:41.963Z,92514.22
2022-08-31T19:05:44.974Z,92512.34
2022-08-31T19:08:49.023Z,92506.53
2022-08-31T19:11:52.514Z,92508.44
2022-08-31T19:14:55.943Z,92517.59
2022-08-31T19:17:59.280Z,92512.91
2022-08-31T19:21:13.487Z,92511.56
2022-08-31T19:24:18.290Z,92508.94
2022-08-31T19:27:21.306Z,92506.31
2022-08-31T19:30:28.050Z,92500.97
2022-08-31T19:33:34.633Z,92506.13
2022-08-31T19:36:40.477Z,92503.50
2022-08-31T19:39:45.833Z,92493.59
2022-08-31T19:46:20.835Z,92500.56
2022-08-31T19:49:25.683Z,92501.78
2022-08-31T19:52:28.411Z,92502.31
2022-08-31T19:55:31.549Z,92502.38
2022-08-31T19:58:34.836Z,92504.34
2022-08-31T20:01:40.357Z,92504.28
2022-08-31T20:04:43.444Z,92494.47
2022-08-31T20:07:46.445Z,92491.19
2022-08-31T20:10:49.449Z,92490.59
2022-08-31T20:13:53.162Z,92487.50
2022-08-31T20:16:56.303Z,92487.00
2022-08-31T20:20:00.578Z,92477.31
2022-08-31T20:23:03.819Z,92476.69
2022-08-31T20:26:07.683Z,92475.47
2022-08-31T20:29:12.055Z,92476.78
2022-08-31T20:32:15.155Z,92484.00
2022-08-31T20:35:19.542Z,92490.47
2022-08-31T20:38:22.587Z,92492.41
2022-08-31T20:41:28.892Z,92485.22
2022-08-31T20:44:35.331Z,92491.13
2022-08-31T20:47:56.529Z,92485.09
2022-08-31T20:50:59.622Z,92483.59
2022-08-31T20:54:02.649Z,92474.34
2022-08-31T20:57:09.791Z,92464.59
2022-08-31T21:00:13.296Z,92479.13
2022-08-31T21:03:16.606Z,92481.69
2022-08-31T21:06:25.969Z,92488.91
2022-08-31T21:09:29.589Z,92486.88
2022-08-31T21:12:33.202Z,92478.28
2022-08-31T21:15:41.514Z,92474.34
2022-08-31T21:18:46.406Z,92481.59
2022-08-31T21:21:50.104Z,92485.38
2022-08-31T21:24:53.106Z,92476.19
2022-08-31T21:27:56.129Z,92479.44
2022-08-31T21:31:18.315Z,92482.06
2022-08-31T21:34:30.815Z,92474.19
2022-08-31T21:37:33.804Z,92477.56
2022-08-31T21:40:37.509Z,92483.50
2022-08-31T21:43:40.974Z,92481.56
2022-08-31T21:46:49.764Z,92483.50
2022-08-31T21:49:54.298Z,92486.63
2022-08-31T21:53:00.240Z,92494.97
2022-08-31T21:56:05.098Z,92497.44
2022-08-31T21:59:08.166Z,92490.03
2022-08-31T22:02:12.748Z,92497.13
2022-08-31T22:05:15.798Z,92495.78
2022-08-31T22:08:19.141Z,92497.75
2022-08-31T22:11:24.757Z,92495.72
2022-08-31T22:14:33.195Z,92494.94
2022-08-31T22:18:02.064Z,92490.22
2022-08-31T22:21:05.908Z,92494.44
2022-08-31T22:24:12.424Z,92494.78
2022-08-31T22:27:29.921Z,92494.44
2022-08-31T22:30:36.470Z,92489.47
2022-08-31T22:33:47.442Z,92489.91
2022-08-31T22:36:52.666Z,92486.91
2022-08-31T22:39:55.886Z,92490.75
2022-08-31T22:42:59.220Z,92485.09
2022-08-31T22:46:14.125Z,92492.38
2022-08-31T22:49:17.499Z,92494.28
2022-08-31T22:52:22.266Z,92490.91
2022-08-31T22:55:25.031Z,92497.81
2022-08-31T22:58:28.140Z,92494.72
2022-08-31T23:01:37.345Z,92494.91
2022-08-31T23:04:44.042Z,92489.13
2022-08-31T23:07:48.141Z,92497.06
2022-08-31T23:10:51.437Z,92492.88
2022-08-31T23:13:57.805Z,92494.69
2022-08-31T23:17:02.932Z,92493.53
2022-08-31T23:20:07.863Z,92495.69
2022-08-31T23:23:11.521Z,92498.41
2022-08-31T23:26:15.969Z,92499.09
2022-08-31T23:29:20.544Z,92498.91
2022-08-31T23:32:28.194Z,92493.88
2022-08-31T23:35:34.504Z,92501.06
2022-08-31T23:38:38.647Z,92505.28
2022-08-31T23:41:41.409Z,92494.97
2022-08-31T23:44:47.059Z,92505.00
2022-08-31T23:47:50.632Z,92490.53
2022-08-31T23:50:55.345Z,92478.75
2022-08-31T23:54:00.898Z,92484.75
2022-08-31T23:57:05.536Z,92474.16
